Time;durP1;ratioP1;P1;durP2;ratioP2;P2;SDS_P1;SDS_P2;PMS_P1;PMS_P2;Temp;Humidity;BMP_temperature;BMP_pressure;BME280_temperature;BME280_humidity;BME280_pressure;Samples;Min_cycle;Max_cycle;Signal;HPM_P1;HPM_P2
2021/03/02 00:00:00;;;;;;;10.45;6.20;;;6.80;83.90;;;6.10;57.68;102259.66;4971318;28;20067;-49
2021/03/02 00:02:28;;;;;;;9.82;5.60;;;6.70;84.70;;;6.20;57.24;102258.28;4968176;28;20031;-50
2021/03/02 00:04:53;;;;;;;7.40;5.13;;;6.80;85.80;;;6.29;57.34;102253.50;4970773;28;20035;-50
2021/03/02 00:07:20;;;;;;;10.60;5.53;;;6.80;86.20;;;6.26;57.12;102258.81;4954051;28;20078;-50
2021/03/02 00:09:46;;;;;;;10.57;5.85;;;6.80;86.30;;;6.08;58.03;102270.06;4953580;28;20046;-48
2021/03/02 00:12:14;;;;;;;10.93;6.03;;;6.70;87.90;;;5.92;58.81;102264.75;4971516;28;20057;-50
2021/03/02 00:14:40;;;;;;;12.45;6.38;;;6.60;89.40;;;5.89;58.82;102264.06;4970088;28;20054;-52
2021/03/02 00:17:19;;;;;;;9.98;5.80;;;6.50;90.60;;;5.91;59.46;102262.25;4971291;28;20037;-50
2021/03/02 00:20:06;;;;;;;7.35;5.25;;;6.50;90.90;;;5.83;60.50;102265.13;4970220;28;20085;-49
2021/03/02 00:23:00;;;;;;;11.60;5.80;;;6.50;91.90;;;5.60;62.50;102268.78;4971134;28;20198;-48
2021/03/02 00:25:38;;;;;;;12.25;5.35;;;6.30;93.70;;;5.51;60.86;102273.53;4966704;28;20109;-48
2021/03/02 00:28:09;;;;;;;11.38;6.45;;;6.20;95.90;;;5.40;60.83;102270.56;4970031;28;20413;-49
2021/03/02 00:30:37;;;;;;;11.73;6.80;;;6.10;95.80;;;5.53;60.44;102272.56;4970875;28;20043;-47
2021/03/02 00:33:06;;;;;;;12.02;6.40;;;6.20;95.90;;;5.82;59.49;102280.72;4933028;28;20471;-49
2021/03/02 00:35:32;;;;;;;9.07;5.93;;;6.30;95.60;;;5.71;59.81;102281.22;4967407;28;20034;-47
2021/03/02 00:37:58;;;;;;;10.63;6.25;;;6.30;95.90;;;5.59;60.47;102274.03;4969059;28;20043;-48
2021/03/02 00:40:25;;;;;;;11.15;6.43;;;6.20;96.90;;;5.44;60.99;102279.88;4969644;28;20042;-47
2021/03/02 00:42:51;;;;;;;10.82;6.18;;;6.10;97.50;;;5.31;61.71;102276.97;4968684;28;20035;-48
2021/03/02 00:45:21;;;;;;;10.77;6.20;;;6.00;98.10;;;5.31;61.69;102276.97;4969510;28;20043;-50
2021/03/02 00:47:52;;;;;;;11.32;6.60;;;5.90;98.00;;;5.41;61.01;102283.44;4970262;28;20043;-47
2021/03/02 00:50:18;;;;;;;10.80;6.20;;;6.00;98.00;;;5.27;61.77;102286.59;4952586;28;20038;-50
2021/03/02 00:52:44;;;;;;;10.55;6.30;;;5.90;98.50;;;5.29;61.42;102286.53;4968885;28;20064;-48
2021/03/02 00:55:11;;;;;;;11.00;6.18;;;5.90;99.10;;;5.18;62.11;102286.19;4969562;28;20391;-48
2021/03/02 00:57:37;;;;;;;10.20;6.40;;;5.80;99.10;;;5.15;62.07;102281.16;4969495;28;20082;-48
2021/03/02 01:00:05;;;;;;;12.07;6.82;;;5.80;99.30;;;5.10;61.95;102275.34;4969200;28;20042;-51
2021/03/02 01:02:31;;;;;;;12.18;6.40;;;5.70;99.40;;;5.13;61.84;102272.63;4970469;28;20475;-50
2021/03/02 01:04:57;;;;;;;10.32;6.28;;;5.80;99.40;;;5.08;62.09;102274.56;4951815;28;20090;-47
2021/03/02 01:07:23;;;;;;;10.57;5.63;;;5.70;99.90;;;4.91;63.05;102270.94;4969151;28;20035;-50
2021/03/02 01:09:49;;;;;;;9.93;6.03;;;5.60;99.90;;;4.80;63.67;102270.53;4969356;28;20509;-50
2021/03/02 01:12:15;;;;;;;8.98;5.43;;;5.50;99.90;;;4.78;63.40;102282.66;4970247;28;20039;-48
2021/03/02 01:14:41;;;;;;;9.90;6.40;;;5.40;99.90;;;4.72;63.78;102277.78;4968871;28;20089;-51
2021/03/02 01:17:07;;;;;;;9.13;5.57;;;5.40;99.90;;;4.76;64.59;102276.72;4970182;28;20503;-47
2021/03/02 01:19:33;;;;;;;8.77;5.28;;;5.40;99.90;;;4.83;63.35;102265.25;4968577;28;20497;-47
2021/03/02 01:21:59;;;;;;;8.20;5.38;;;5.40;99.90;;;4.76;63.87;102266.41;4970015;28;20030;-49
2021/03/02 01:24:25;;;;;;;10.02;6.00;;;5.40;99.90;;;4.59;64.57;102269.69;4968267;28;20046;-47
2021/03/02 01:26:51;;;;;;;9.40;5.47;;;5.30;99.90;;;4.50;64.74;102266.63;4969671;28;20086;-46
2021/03/02 01:29:18;;;;;;;8.32;5.13;;;5.20;99.90;;;4.51;65.15;102268.31;4968791;28;20038;-47
2021/03/02 01:31:43;;;;;;;9.13;5.72;;;5.10;99.90;;;4.55;64.39;102264.72;4969627;28;20034;-49
2021/03/02 01:34:09;;;;;;;9.38;5.95;;;5.10;99.90;;;4.46;64.62;102265.91;4968334;28;20042;-48
2021/03/02 01:36:35;;;;;;;12.40;6.35;;;5.10;99.90;;;4.37;65.28;102266.28;4969681;28;20373;-47
2021/03/02 01:39:02;;;;;;;9.68;6.18;;;5.00;99.90;;;4.30;65.84;102265.69;4968162;28;20481;-46
2021/03/02 01:41:28;;;;;;;8.82;5.75;;;5.00;99.90;;;4.22;65.79;102260.00;4969418;28;20069;-50
2021/03/02 01:43:54;;;;;;;8.25;5.40;;;4.80;99.90;;;4.34;65.62;102267.25;4968489;28;20039;-46
2021/03/02 01:46:20;;;;;;;8.80;5.50;;;4.90;99.90;;;4.24;65.71;102265.09;4969741;28;20391;-49
2021/03/02 01:48:46;;;;;;;8.85;5.72;;;4.90;99.90;;;4.13;66.62;102262.09;4968793;28;20042;-46
2021/03/02 01:51:12;;;;;;;9.00;5.28;;;4.80;99.90;;;4.20;66.02;102260.97;4969551;28;20039;-49
2021/03/02 01:53:38;;;;;;;9.38;5.68;;;4.80;99.90;;;4.20;65.80;102260.97;4951283;28;20041;-47
2021/03/02 01:56:04;;;;;;;10.23;6.10;;;4.80;99.90;;;4.23;66.31;102259.09;4968077;28;20121;-50
2021/03/02 01:58:30;;;;;;;8.25;6.38;;;4.80;99.90;;;4.16;66.12;102257.66;4968287;28;20042;-48
2021/03/02 02:01:05;;;;;;;15.00;6.80;;;4.80;99.90;;;4.06;67.14;102258.91;4969350;28;20510;-48
2021/03/02 02:04:01;;;;;;;12.13;6.10;;;4.70;99.90;;;4.09;68.26;102266.53;4968476;28;20038;-48
2021/03/02 02:06:54;;;;;;;10.00;4.85;;;4.70;99.90;;;4.00;68.33;102266.88;4948466;29;20584;-49
2021/03/02 02:09:42;;;;;;;10.73;5.80;;;4.60;99.90;;;3.99;68.52;102266.03;4949159;28;20498;-47
2021/03/02 02:12:46;;;;;;;11.38;5.93;;;4.60;99.90;;;3.92;68.17;102261.16;4951845;28;20380;-48
2021/03/02 02:15:20;;;;;;;9.85;5.30;;;4.50;99.90;;;3.89;67.46;102254.38;4946329;28;20403;-48
2021/03/02 02:18:09;;;;;;;10.80;6.15;;;4.50;99.90;;;3.87;68.27;102255.34;4969030;28;20251;-50
2021/03/02 02:20:47;;;;;;;9.57;5.75;;;4.50;99.90;;;3.76;68.15;102257.50;4940997;28;20353;-45
2021/03/02 02:23:35;;;;;;;9.02;5.07;;;4.40;99.90;;;3.94;68.33;102267.94;4953887;29;20094;-46
2021/03/02 02:26:19;;;;;;;11.90;6.28;;;4.50;99.90;;;3.89;67.83;102267.28;4963035;28;20057;-48
2021/03/02 02:28:47;;;;;;;10.80;5.78;;;4.50;99.90;;;3.83;67.74;102266.66;4973052;28;20046;-47
2021/03/02 02:31:15;;;;;;;8.15;5.40;;;4.40;99.90;;;3.77;68.06;102261.78;4955615;28;20378;-46
2021/03/02 02:33:44;;;;;;;11.23;5.47;;;4.40;99.90;;;3.75;67.89;102264.41;4954943;28;20042;-48
2021/03/02 02:36:15;;;;;;;10.27;6.18;;;4.40;99.90;;;3.73;68.37;102255.03;4954952;28;20168;-50
2021/03/02 02:38:46;;;;;;;9.32;5.47;;;4.30;99.90;;;3.71;68.87;102264.56;4956141;28;20099;-47
2021/03/02 02:41:13;;;;;;;8.57;5.60;;;4.30;99.90;;;3.65;68.56;102266.47;4955138;28;20665;-51
2021/03/02 02:43:41;;;;;;;10.20;5.32;;;4.30;99.90;;;3.61;68.78;102262.31;4954527;28;20455;-48
2021/03/02 02:46:08;;;;;;;8.05;4.97;;;4.30;99.90;;;3.60;68.56;102267.53;4950752;28;20042;-47
2021/03/02 02:48:34;;;;;;;9.80;5.68;;;4.20;99.90;;;3.62;68.43;102258.00;4953337;28;20035;-50
2021/03/02 02:51:01;;;;;;;11.77;5.28;;;4.20;99.90;;;3.68;68.62;102265.53;4972217;28;20037;-51
2021/03/02 02:53:30;;;;;;;8.35;5.43;;;4.20;99.90;;;3.66;68.36;102263.00;4955139;28;20035;-48
2021/03/02 02:56:00;;;;;;;11.98;6.03;;;4.20;99.90;;;3.72;68.39;102272.25;4970765;28;20145;-48
2021/03/02 02:58:37;;;;;;;9.50;5.78;;;4.30;99.90;;;3.61;69.09;102264.91;4953429;28;20410;-51
2021/03/02 03:01:05;;;;;;;6.80;5.20;;;4.20;99.90;;;3.59;68.80;102264.13;4972406;28;20039;-49
2021/03/02 03:03:36;;;;;;;9.73;5.30;;;4.20;99.90;;;3.52;69.31;102261.81;4952480;28;20511;-50
2021/03/02 03:06:10;;;;;;;11.32;5.45;;;4.20;99.90;;;3.44;69.63;102256.09;4972659;28;20353;-49
2021/03/02 03:08:36;;;;;;;11.88;6.40;;;4.10;99.90;;;3.40;69.69;102262.25;4971251;28;20047;-47
2021/03/02 03:11:04;;;;;;;8.93;5.35;;;4.00;99.90;;;3.48;69.44;102258.50;4954642;28;20042;-50
2021/03/02 03:13:39;;;;;;;10.30;6.22;;;4.00;99.90;;;3.50;69.58;102256.72;4971069;28;20395;-48
2021/03/02 03:16:07;;;;;;;13.85;6.03;;;4.10;99.90;;;3.37;69.84;102265.78;4954460;28;20406;-48
2021/03/02 03:18:46;;;;;;;15.43;7.10;;;4.00;99.90;;;3.33;70.24;102265.03;4972361;28;20027;-48
2021/03/02 03:21:13;;;;;;;8.50;5.63;;;4.00;99.90;;;3.31;70.09;102261.69;4970842;28;20121;-47
2021/03/02 03:23:42;;;;;;;12.50;5.50;;;3.90;99.90;;;3.30;70.09;102256.63;4955115;28;20034;-48
2021/03/02 03:26:10;;;;;;;8.93;5.32;;;3.90;99.90;;;3.24;70.46;102255.09;4971296;28;20104;-46
2021/03/02 03:28:37;;;;;;;9.63;5.55;;;3.90;99.90;;;3.21;70.34;102265.50;4971774;28;20035;-49
2021/03/02 03:31:05;;;;;;;19.80;6.22;;;3.80;99.90;;;3.18;70.73;102259.63;4952415;28;20035;-51
2021/03/02 03:33:33;;;;;;;12.02;5.35;;;3.80;99.90;;;3.27;70.62;102249.00;4971770;28;20039;-46
2021/03/02 03:35:59;;;;;;;27.83;9.27;;;3.80;99.90;;;3.25;70.33;102246.47;4970927;28;20098;-48
2021/03/02 03:40:55;;;;;;;8.82;4.85;;;3.90;99.90;;;3.33;70.11;102247.00;4958810;28;20054;-49
2021/03/02 03:43:20;;;;;;;10.65;5.22;;;3.90;99.90;;;3.28;70.80;102248.09;4970531;28;20046;-48
2021/03/02 03:45:46;;;;;;;9.15;5.38;;;3.90;99.90;;;3.15;71.46;102249.41;4970675;28;20409;-48
2021/03/02 03:48:12;;;;;;;11.27;5.85;;;3.80;99.90;;;3.06;71.37;102260.03;4970024;28;20165;-51
2021/03/02 03:50:38;;;;;;;10.23;4.63;;;3.70;99.90;;;3.09;71.01;102260.78;4952719;29;20126;-50
2021/03/02 03:53:07;;;;;;;13.40;5.53;;;3.70;99.90;;;3.19;70.51;102258.72;4937158;28;20106;-46
2021/03/02 03:55:41;;;;;;;7.68;4.40;;;3.70;99.90;;;3.19;71.05;102261.28;4954624;28;20077;-46
2021/03/02 03:58:11;;;;;;;9.43;5.28;;;3.80;99.90;;;3.12;71.05;102260.66;4952486;28;20035;-48
2021/03/02 04:00:39;;;;;;;7.22;3.80;;;3.70;99.90;;;3.03;71.29;102260.13;4954712;28;20035;-50
2021/03/02 04:03:07;;;;;;;14.52;5.78;;;3.60;99.90;;;2.96;71.67;102264.66;4952172;28;20034;-45
2021/03/02 04:05:35;;;;;;;9.20;5.00;;;3.60;99.90;;;2.94;71.80;102267.28;4954006;28;20031;-50
2021/03/02 04:08:01;;;;;;;9.93;5.05;;;3.70;99.90;;;2.98;71.19;102271.44;4952954;28;20034;-53
2021/03/02 04:10:27;;;;;;;9.13;4.88;;;3.60;99.90;;;3.00;71.36;102261.91;4954529;28;20069;-50
2021/03/02 04:12:54;;;;;;;8.32;4.80;;;3.60;99.90;;;3.14;70.68;102270.91;4952701;28;20039;-48
2021/03/02 04:15:20;;;;;;;7.40;4.30;;;3.70;99.90;;;3.18;70.38;102265.59;4954289;28;20043;-47
2021/03/02 04:17:51;;;;;;;8.52;4.82;;;3.70;99.90;;;3.18;70.54;102275.06;4951779;28;20475;-49
2021/03/02 04:20:18;;;;;;;12.65;5.35;;;3.70;99.90;;;3.02;71.02;102279.91;4965529;28;20589;-51
2021/03/02 04:22:44;;;;;;;11.55;5.10;;;3.70;99.90;;;2.90;71.63;102275.16;4950872;29;20122;-48
2021/03/02 04:25:11;;;;;;;10.20;5.72;;;3.50;99.90;;;2.90;71.65;102278.56;4951614;28;20038;-48
2021/03/02 04:27:38;;;;;;;10.55;5.43;;;3.50;99.90;;;2.92;71.50;102269.06;4952638;28;20034;-47
2021/03/02 04:30:05;;;;;;;7.90;5.22;;;3.50;99.90;;;2.87;71.76;102277.81;4970233;28;20046;-53
2021/03/02 04:32:31;;;;;;;11.15;5.78;;;3.50;99.90;;;2.90;71.52;102272.56;4953946;28;20085;-48
2021/03/02 04:34:57;;;;;;;9.95;5.57;;;3.50;99.90;;;2.83;71.82;102271.97;4969899;28;20046;-47
2021/03/02 04:37:23;;;;;;;8.60;4.90;;;3.50;99.90;;;2.79;71.84;102272.13;4971410;28;20045;-46
2021/03/02 04:39:49;;;;;;;11.48;4.55;;;3.40;99.90;;;2.69;71.72;102273.31;4969337;28;20429;-51
2021/03/02 04:42:15;;;;;;;12.45;6.18;;;3.30;99.90;;;2.69;72.59;102281.03;4970693;28;20054;-48
2021/03/02 04:44:41;;;;;;;11.50;7.18;;;3.30;99.90;;;2.70;72.29;102273.25;4969514;28;20050;-48
2021/03/02 04:47:07;;;;;;;17.40;7.22;;;3.30;99.90;;;2.74;72.17;102279.16;4969431;28;20131;-51
2021/03/02 04:49:33;;;;;;;14.98;5.70;;;3.30;99.90;;;2.77;72.01;102279.88;4969434;28;20034;-49
2021/03/02 04:51:59;;;;;;;11.38;5.72;;;3.30;99.90;;;2.69;72.32;102281.03;4970989;28;20045;-48
2021/03/02 04:54:26;;;;;;;14.93;8.23;;;3.30;99.90;;;2.71;72.40;102280.09;4968639;28;20039;-48
2021/03/02 04:56:53;;;;;;;13.27;6.47;;;3.30;99.90;;;2.69;72.25;102279.28;4969724;28;20413;-45
2021/03/02 04:59:19;;;;;;;15.65;7.35;;;3.30;99.90;;;2.57;72.60;102284.81;4969127;28;20045;-52
2021/03/02 05:01:45;;;;;;;15.50;7.55;;;3.20;99.90;;;2.56;73.01;102280.56;4970411;28;20125;-49
2021/03/02 05:04:11;;;;;;;15.25;7.07;;;3.20;99.90;;;2.55;72.87;102281.47;4968293;28;20178;-48
2021/03/02 05:06:37;;;;;;;11.80;6.72;;;3.20;99.90;;;2.48;73.22;102278.25;4970296;28;20042;-50
2021/03/02 05:09:04;;;;;;;13.75;7.28;;;3.10;99.90;;;2.38;73.68;102286.28;4966426;28;20031;-48
2021/03/02 05:11:30;;;;;;;15.90;7.97;;;3.00;99.90;;;2.32;74.40;102283.03;4969471;28;20098;-46
2021/03/02 05:13:56;;;;;;;16.33;8.50;;;3.00;99.90;;;2.33;74.59;102284.72;4969213;28;20034;-46
2021/03/02 05:16:22;;;;;;;15.60;7.43;;;2.90;99.90;;;2.39;74.16;102283.66;4968219;28;20031;-52
2021/03/02 05:18:48;;;;;;;18.63;7.82;;;3.00;99.90;;;2.38;74.13;102286.28;4968417;28;20046;-47
2021/03/02 05:21:13;;;;;;;17.92;7.65;;;3.00;99.90;;;2.39;73.65;102293.13;4970257;28;20034;-51
2021/03/02 05:23:39;;;;;;;13.02;6.93;;;3.00;99.90;;;2.32;74.29;102290.75;4969668;28;20053;-49
2021/03/02 05:26:05;;;;;;;17.35;7.95;;;2.90;99.90;;;2.28;74.22;102288.34;4969677;28;20521;-53
2021/03/02 05:28:32;;;;;;;11.55;6.75;;;2.90;99.90;;;2.27;74.28;102284.91;4970067;28;20450;-50
2021/03/02 05:30:58;;;;;;;13.48;7.45;;;2.90;99.90;;;2.29;74.18;102284.88;4967810;28;20073;-50
2021/03/02 05:33:24;;;;;;;14.30;7.10;;;2.90;99.90;;;2.21;74.74;102284.25;4969062;28;20046;-49
2021/03/02 05:35:50;;;;;;;15.85;7.30;;;2.90;99.90;;;2.20;74.66;102293.72;4970103;28;20070;-54
2021/03/02 05:38:16;;;;;;;13.30;7.82;;;2.80;99.90;;;2.13;74.84;102286.22;4970091;28;20038;-49
2021/03/02 05:40:42;;;;;;;13.80;7.35;;;2.80;99.90;;;2.21;74.56;102297.13;4969755;28;20074;-50
2021/03/02 05:43:09;;;;;;;19.15;7.43;;;2.80;99.90;;;2.18;74.61;102290.34;4967554;28;20087;-48
2021/03/02 05:45:36;;;;;;;12.95;7.72;;;2.80;99.90;;;2.16;74.77;102291.28;4969731;28;20589;-53
2021/03/02 05:48:10;;;;;;;16.25;8.38;;;2.80;99.90;;;2.12;75.99;102287.09;4967319;28;20525;-52
2021/03/02 05:50:36;;;;;;;24.10;9.88;;;2.70;99.90;;;2.36;78.42;102293.25;4969913;28;20390;-45
2021/03/02 05:53:03;;;;;;;23.52;9.38;;;2.90;99.90;;;2.43;76.85;102292.13;4967743;28;20073;-49
2021/03/02 05:55:30;;;;;;;24.95;10.20;;;3.00;99.90;;;2.31;75.60;102301.94;4969738;28;20027;-49
2021/03/02 05:57:56;;;;;;;26.40;13.52;;;2.90;99.90;;;2.38;74.94;102300.00;4968645;28;20125;-48
2021/03/02 06:00:23;;;;;;;27.48;11.57;;;3.00;99.90;;;2.44;74.61;102306.69;4967358;28;20174;-50
2021/03/02 06:02:49;;;;;;;47.65;21.88;;;3.00;99.90;;;2.36;74.77;102299.22;4967983;28;20402;-47
2021/03/02 06:05:15;;;;;;;48.75;20.48;;;3.00;99.90;;;2.36;74.94;102295.81;4967454;28;20031;-52
2021/03/02 06:07:41;;;;;;;29.50;14.65;;;3.00;99.90;;;2.44;74.40;102306.69;4969721;28;20042;-52
2021/03/02 06:10:08;;;;;;;30.55;12.32;;;2.90;99.90;;;2.51;74.30;102305.59;4968505;28;20129;-46
2021/03/02 06:13:09;;;;;;;17.15;8.75;;;3.10;99.90;;;2.71;74.90;102303.25;4969269;28;20510;-49
2021/03/02 06:15:56;;;;;;;31.13;13.70;;;3.20;99.90;;;2.69;74.35;102312.75;4890944;29;20082;-49
2021/03/02 06:18:23;;;;;;;27.88;13.82;;;3.30;99.90;;;2.74;73.53;102316.03;4889516;29;20065;-48
2021/03/02 06:20:51;;;;;;;24.48;11.85;;;3.30;99.90;;;2.91;73.02;102320.59;4890283;29;20112;-50
2021/03/02 06:23:30;;;;;;;23.17;11.57;;;3.40;99.90;;;3.17;72.45;102314.59;4877129;29;20049;-48
2021/03/02 06:26:08;;;;;;;30.02;13.13;;;3.60;99.90;;;3.24;72.45;102324.66;4890476;29;20397;-49
2021/03/02 06:28:43;;;;;;;27.98;12.07;;;3.80;99.90;;;3.30;72.00;102313.28;4890053;29;20040;-51
2021/03/02 06:31:38;;;;;;;23.00;9.83;;;3.90;99.90;;;3.59;71.76;102318.25;4889550;29;20564;-47
2021/03/02 06:34:23;;;;;;;26.33;11.95;;;4.10;99.90;;;3.76;71.00;102324.53;4890523;29;20068;-49
2021/03/02 06:36:54;;;;;;;29.40;11.82;;;4.30;99.90;;;3.94;70.68;102329.00;4890185;29;20049;-49
2021/03/02 06:39:21;;;;;;;30.10;12.00;;;4.50;99.90;;;4.15;69.81;102330.78;4889965;29;20505;-46
2021/03/02 06:41:48;;;;;;;31.25;12.57;;;4.70;99.90;;;4.39;69.47;102338.47;4890279;29;20049;-52
2021/03/02 06:44:14;;;;;;;24.83;10.40;;;5.10;99.90;;;4.60;68.30;102335.91;4874646;29;20417;-48
2021/03/02 06:46:41;;;;;;;25.55;11.98;;;5.30;99.90;;;4.74;68.08;102335.34;4890253;29;20386;-49
2021/03/02 06:49:08;;;;;;;23.85;10.30;;;5.40;99.90;;;4.90;67.60;102343.31;4914610;28;20042;-47
2021/03/02 06:51:37;;;;;;;24.38;10.18;;;5.40;99.90;;;5.11;66.80;102337.28;4952032;28;20035;-49
2021/03/02 06:54:17;;;;;;;27.83;10.90;;;5.60;99.90;;;5.26;67.01;102338.34;4951997;28;20031;-49
2021/03/02 06:56:44;;;;;;;28.38;11.90;;;5.80;99.90;;;5.39;66.25;102339.53;4968995;28;20582;-49
2021/03/02 06:59:16;;;;;;;23.13;9.45;;;5.90;99.90;;;5.51;66.23;102338.16;4951631;28;20045;-54
2021/03/02 07:01:45;;;;;;;16.27;8.48;;;6.00;99.90;;;5.70;65.57;102338.19;4969173;28;20047;-48
2021/03/02 07:04:15;;;;;;;18.10;8.05;;;6.20;99.90;;;5.87;65.21;102336.53;4970250;28;20529;-50
2021/03/02 07:06:43;;;;;;;18.33;8.55;;;6.30;99.90;;;6.06;64.42;102339.16;4972723;28;20171;-50
2021/03/02 07:09:11;;;;;;;14.52;7.70;;;6.50;99.90;;;6.18;64.33;102343.75;4972539;28;20521;-53
2021/03/02 07:11:39;;;;;;;14.18;7.38;;;6.70;99.90;;;6.47;63.40;102347.59;4972205;28;20121;-50
2021/03/02 07:14:11;;;;;;;14.43;7.15;;;6.90;99.90;;;6.79;62.97;102338.25;4972187;28;20570;-45
2021/03/02 07:16:47;;;;;;;14.75;6.90;;;7.20;99.90;;;7.01;62.34;102348.44;4955464;28;20471;-47
2021/03/02 07:19:22;;;;;;;12.77;6.97;;;7.50;99.90;;;7.28;61.98;102346.19;4955273;28;20043;-53
2021/03/02 07:21:50;;;;;;;14.98;7.75;;;7.70;99.90;;;7.59;60.26;102348.88;4978345;23;20062;-49
2021/03/02 07:24:19;;;;;;;17.52;8.52;;;8.00;99.90;;;7.66;60.41;102345.06;4972432;28;20042;-49
2021/03/02 07:26:49;;;;;;;18.92;8.52;;;8.10;99.60;;;7.69;60.63;102353.59;4972500;28;20027;-46
2021/03/02 07:29:15;;;;;;;12.20;7.50;;;8.20;99.40;;;7.98;59.77;102350.31;4972604;28;20584;-49
2021/03/02 07:31:42;;;;;;;18.30;7.75;;;8.30;98.90;;;8.21;59.32;102351.66;4972171;28;20039;-46
2021/03/02 07:34:10;;;;;;;16.42;8.10;;;8.60;98.20;;;8.42;58.68;102355.72;4954741;28;20035;-46
2021/03/02 07:36:42;;;;;;;16.10;8.00;;;8.80;97.30;;;8.70;57.33;102349.81;4971904;28;20038;-47
2021/03/02 07:39:25;;;;;;;20.58;9.25;;;9.00;96.10;;;8.87;56.79;102361.84;4954658;28;20039;-45
2021/03/02 07:41:54;;;;;;;20.10;10.27;;;9.30;95.30;;;8.93;56.95;102359.75;4971986;28;20387;-47
2021/03/02 07:44:20;;;;;;;14.88;8.75;;;9.40;94.50;;;9.09;56.82;102366.63;4971786;28;20031;-47
2021/03/02 07:46:56;;;;;;;19.75;8.35;;;9.60;94.00;;;9.39;55.86;102372.66;4971952;28;20490;-47
2021/03/02 07:49:22;;;;;;;20.42;10.63;;;9.80;93.40;;;9.64;55.32;102374.63;4971885;28;20061;-45
2021/03/02 07:52:14;;;;;;;12.95;8.25;;;10.00;92.50;;;9.74;52.92;102369.72;4954438;28;20046;-47
2021/03/02 07:54:41;;;;;;;18.63;8.45;;;10.20;90.60;;;9.93;54.13;102370.25;4971518;28;20051;-46
2021/03/02 07:57:18;;;;;;;15.55;9.00;;;10.40;90.30;;;10.17;53.27;102365.31;4953929;28;20023;-47
2021/03/02 08:00:21;;;;;;;18.13;9.18;;;10.50;89.70;;;10.28;52.98;102371.56;4971447;28;20053;-50
2021/03/02 08:03:21;;;;;;;20.25;9.38;;;10.70;87.90;;;10.45;52.58;102369.63;4971461;28;20063;-50
2021/03/02 08:05:49;;;;;;;15.77;8.27;;;10.90;86.40;;;10.53;52.76;102373.41;4971420;28;20066;-50
2021/03/02 08:08:24;;;;;;;13.07;7.38;;;11.00;84.20;;;10.72;50.10;102374.84;4971743;28;20150;-46
2021/03/02 08:10:50;;;;;;;15.50;7.72;;;11.20;80.10;;;10.74;50.83;102373.81;4971607;28;20145;-50
2021/03/02 08:13:42;;;;;;;12.80;6.85;;;11.20;79.00;;;10.83;48.67;102369.78;4971596;28;20036;-52
2021/03/02 08:16:13;;;;;;;13.15;6.35;;;11.30;77.40;;;10.87;50.06;102379.88;4971046;28;20355;-54
2021/03/02 08:18:41;;;;;;;10.07;6.85;;;11.30;75.30;;;10.95;49.64;102367.19;4954177;28;20042;-49
2021/03/02 08:21:20;;;;;;;11.95;7.28;;;11.40;74.10;;;11.13;48.63;102372.13;4971167;28;20050;-47
2021/03/02 08:23:58;;;;;;;10.38;7.07;;;11.50;74.70;;;11.18;48.69;102377.88;4971063;28;20071;-45
2021/03/02 08:26:32;;;;;;;11.50;6.22;;;11.60;73.00;;;11.54;48.53;102358.91;4971221;28;20477;-50
2021/03/02 08:29:10;;;;;;;11.77;6.57;;;11.90;73.80;;;11.60;47.31;102375.00;4971114;28;20049;-49
2021/03/02 08:31:42;;;;;;;21.80;7.70;;;12.10;71.80;;;11.64;47.92;102367.78;4953484;28;20038;-48
2021/03/02 08:34:10;;;;;;;11.63;6.97;;;12.00;71.70;;;11.89;47.55;102369.56;4970749;28;20035;-50
2021/03/02 08:36:37;;;;;;;13.48;6.40;;;12.20;71.30;;;12.00;47.22;102361.81;4971133;28;20506;-48
2021/03/02 08:39:15;;;;;;;8.85;5.20;;;12.40;70.40;;;12.00;45.46;102367.03;4971106;28;20174;-50
2021/03/02 08:41:44;;;;;;;8.43;5.32;;;12.60;67.30;;;12.11;46.06;102369.72;4970799;28;20050;-47
2021/03/02 08:44:19;;;;;;;11.45;6.38;;;12.60;67.70;;;12.21;45.63;102369.91;4971098;28;20038;-47
2021/03/02 08:46:50;;;;;;;8.90;5.40;;;12.60;67.50;;;12.38;45.50;102371.31;4970807;28;20106;-49
2021/03/02 08:49:17;;;;;;;7.72;5.32;;;12.80;66.30;;;12.60;45.03;102371.44;4971015;28;20065;-46
2021/03/02 08:51:43;;;;;;;6.95;5.18;;;12.90;66.30;;;12.53;44.65;102373.66;4970954;28;20038;-50
2021/03/02 08:54:09;;;;;;;8.27;4.05;;;12.90;65.00;;;12.73;44.18;102374.00;4970855;28;20066;-51
2021/03/02 08:56:35;;;;;;;7.00;4.65;;;13.00;64.40;;;12.69;44.25;102376.00;4971114;28;20039;-50
2021/03/02 08:59:01;;;;;;;8.88;4.25;;;13.10;64.10;;;12.71;44.11;102370.66;4970496;28;20399;-52
2021/03/02 09:01:34;;;;;;;6.20;3.83;;;13.10;63.40;;;12.77;42.58;102378.88;4970246;28;20038;-51
2021/03/02 09:04:16;;;;;;;10.07;4.40;;;13.20;62.50;;;12.94;42.20;102381.09;4968967;28;20126;-50
2021/03/02 09:06:49;;;;;;;5.45;3.65;;;13.30;61.80;;;13.00;42.20;102378.97;4970383;28;20502;-47
2021/03/02 09:09:21;;;;;;;7.85;3.45;;;13.40;60.40;;;13.18;42.33;102378.47;4970436;28;20038;-46
2021/03/02 09:11:55;;;;;;;7.45;4.32;;;13.50;61.00;;;13.37;40.69;102377.91;4953626;28;20078;-51
2021/03/02 09:14:23;;;;;;;6.32;4.55;;;13.70;60.60;;;13.12;41.84;102378.06;4970604;28;20035;-49
2021/03/02 09:16:51;;;;;;;7.45;4.07;;;13.60;59.10;;;13.08;41.99;102379.25;4970499;28;20356;-51
2021/03/02 09:19:30;;;;;;;5.88;3.83;;;13.50;59.40;;;12.88;39.87;102376.31;4970242;28;20041;-47
2021/03/02 09:22:12;;;;;;;5.93;3.75;;;13.40;57.50;;;12.86;41.23;102372.13;4969910;28;20050;-48
2021/03/02 09:24:43;;;;;;;5.72;3.65;;;13.40;58.90;;;13.03;41.45;102371.72;4970130;28;20046;-44
2021/03/02 09:27:19;;;;;;;8.02;3.72;;;13.50;58.60;;;13.17;41.25;102370.72;4969534;28;20043;-49
2021/03/02 09:29:52;;;;;;;8.23;3.80;;;13.60;58.40;;;13.56;40.44;102374.72;4969984;28;20042;-50
2021/03/02 09:32:28;;;;;;;8.52;3.92;;;13.80;58.30;;;13.46;39.57;102366.72;4969976;28;20030;-48
2021/03/02 09:35:10;;;;;;;5.38;3.08;;;13.90;56.50;;;13.59;38.97;102374.50;4952544;28;20031;-45
2021/03/02 09:37:38;;;;;;;6.63;3.63;;;14.00;57.00;;;13.67;39.90;102373.91;4970289;28;20062;-48
2021/03/02 09:40:14;;;;;;;6.18;3.22;;;14.10;56.50;;;13.91;37.11;102372.81;4969707;28;20037;-49
2021/03/02 09:42:42;;;;;;;;;;;14.20;56.30;;;14.04;37.10;102367.44;4970246;28;20035;-49
2021/03/02 09:45:18;;;;;;;6.70;3.08;;;14.40;53.90;;;14.34;37.50;102374.66;4969689;28;19922;-48
2021/03/02 09:47:46;;;;;;;4.97;2.97;;;14.60;54.60;;;14.43;38.08;102365.25;4969949;28;20041;-45
2021/03/02 09:50:20;;;;;;;6.50;3.53;;;14.80;54.10;;;14.65;37.08;102370.41;4970229;28;20174;-46
2021/03/02 09:52:49;;;;;;;6.35;3.25;;;15.00;54.10;;;14.68;37.12;102366.69;4970049;28;20038;-50
2021/03/02 09:55:17;;;;;;;5.95;3.67;;;15.10;53.70;;;14.59;37.20;102370.94;4952454;28;20145;-48
2021/03/02 09:58:13;;;;;;;6.70;3.30;;;15.10;53.30;;;14.73;36.55;102375.03;4969702;28;20046;-50
2021/03/02 10:00:50;;;;;;;4.53;2.78;;;15.10;53.60;;;15.02;36.92;102377.91;4969626;28;20047;-48
2021/03/02 10:03:35;;;;;;;9.50;3.13;;;15.20;53.70;;;15.19;35.64;102378.16;4969905;28;20117;-50
2021/03/02 10:06:06;;;;;;;8.27;3.20;;;15.60;53.00;;;15.28;35.46;102372.13;4969359;28;20043;-46
2021/03/02 10:08:36;;;;;;;4.88;2.78;;;15.60;51.70;;;15.17;35.84;102380.06;4969686;28;20042;-52
2021/03/02 10:11:11;;;;;;;8.02;3.13;;;15.50;51.80;;;14.99;35.85;102376.38;4969594;28;20034;-52
2021/03/02 10:13:45;;;;;;;4.80;3.73;;;15.40;51.40;;;15.05;35.87;102369.78;4969401;28;20423;-47
2021/03/02 10:16:17;;;;;;;7.30;3.13;;;15.40;51.60;;;15.27;35.62;102370.47;4969554;28;20062;-51
2021/03/02 10:18:58;;;;;;;7.43;2.67;;;15.60;51.80;;;15.25;34.43;102371.56;4969320;28;20059;-48
2021/03/02 10:21:45;;;;;;;6.13;3.13;;;15.70;51.00;;;15.53;35.07;102363.00;4969064;28;20108;-48
2021/03/02 10:24:27;;;;;;;5.47;2.90;;;15.70;51.10;;;15.64;34.57;102377.88;4969487;28;20089;-51
2021/03/02 10:27:13;;;;;;;7.07;3.20;;;16.00;50.30;;;16.01;34.54;102370.28;4969042;28;20069;-50
2021/03/02 10:29:43;;;;;;;;;;;16.20;50.50;;;15.42;32.86;102370.97;4953839;28;20049;-53
2021/03/02 10:32:10;;;;;;;7.20;2.35;;;16.00;47.40;;;15.42;35.87;102373.59;4969274;28;20016;-48
2021/03/02 10:34:38;;;;;;;3.65;2.17;;;15.90;49.70;;;15.86;35.02;102371.59;4969573;28;20022;-49